sensor_id;sensor_type;location;lat;lon;timestamp;P1;durP1;ratioP1;P2;durP2;ratioP2
68763;SDS011;55754;52.038;5.566;2022-08-19T00:00:15;13.73;;;7.83;;
68763;SDS011;55754;52.038;5.566;2022-08-19T00:02:42;12.57;;;7.88;;
68763;SDS011;55754;52.038;5.566;2022-08-19T00:05:09;12.30;;;7.78;;
68763;SDS011;55754;52.038;5.566;2022-08-19T00:07:35;13.23;;;8.03;;
68763;SDS011;55754;52.038;5.566;2022-08-19T00:10:01;12.85;;;7.55;;
68763;SDS011;55754;52.038;5.566;2022-08-19T00:12:28;14.55;;;7.80;;
68763;SDS011;55754;52.038;5.566;2022-08-19T00:14:53;11.87;;;7.73;;
68763;SDS011;55754;52.038;5.566;2022-08-19T00:17:19;12.57;;;7.78;;
68763;SDS011;55754;52.038;5.566;2022-08-19T00:19:45;13.40;;;7.80;;
68763;SDS011;55754;52.038;5.566;2022-08-19T00:22:11;12.00;;;7.80;;
68763;SDS011;55754;52.038;5.566;2022-08-19T00:24:37;12.70;;;7.50;;
68763;SDS011;55754;52.038;5.566;2022-08-19T00:27:03;12.03;;;7.60;;
68763;SDS011;55754;52.038;5.566;2022-08-19T00:29:30;11.23;;;7.70;;
68763;SDS011;55754;52.038;5.566;2022-08-19T00:31:56;11.85;;;7.53;;
68763;SDS011;55754;52.038;5.566;2022-08-19T00:34:23;11.60;;;7.27;;
68763;SDS011;55754;52.038;5.566;2022-08-19T00:36:52;12.27;;;8.05;;
68763;SDS011;55754;52.038;5.566;2022-08-19T00:39:18;14.13;;;7.57;;
68763;SDS011;55754;52.038;5.566;2022-08-19T00:41:46;12.00;;;7.00;;
68763;SDS011;55754;52.038;5.566;2022-08-19T00:44:19;10.13;;;6.90;;
68763;SDS011;55754;52.038;5.566;2022-08-19T00:46:48;12.13;;;6.88;;
68763;SDS011;55754;52.038;5.566;2022-08-19T00:49:20;10.02;;;7.03;;
68763;SDS011;55754;52.038;5.566;2022-08-19T00:51:51;12.37;;;6.80;;
68763;SDS011;55754;52.038;5.566;2022-08-19T00:54:21;10.05;;;6.88;;
68763;SDS011;55754;52.038;5.566;2022-08-19T00:56:47;9.63;;;6.85;;
68763;SDS011;55754;52.038;5.566;2022-08-19T00:59:15;13.50;;;6.40;;
68763;SDS011;55754;52.038;5.566;2022-08-19T01:01:43;19.20;;;6.60;;
68763;SDS011;55754;52.038;5.566;2022-08-19T01:04:10;9.48;;;6.38;;
68763;SDS011;55754;52.038;5.566;2022-08-19T01:06:36;10.43;;;6.60;;
68763;SDS011;55754;52.038;5.566;2022-08-19T01:09:04;10.32;;;6.82;;
68763;SDS011;55754;52.038;5.566;2022-08-19T01:11:31;9.80;;;6.78;;
68763;SDS011;55754;52.038;5.566;2022-08-19T01:13:59;10.60;;;6.53;;
68763;SDS011;55754;52.038;5.566;2022-08-19T01:16:25;9.80;;;6.20;;
68763;SDS011;55754;52.038;5.566;2022-08-19T01:18:53;9.35;;;6.22;;
68763;SDS011;55754;52.038;5.566;2022-08-19T01:21:24;10.23;;;6.33;;
68763;SDS011;55754;52.038;5.566;2022-08-19T01:23:54;9.90;;;6.80;;
68763;SDS011;55754;52.038;5.566;2022-08-19T01:26:22;9.77;;;6.37;;
68763;SDS011;55754;52.038;5.566;2022-08-19T01:28:50;10.15;;;6.55;;
68763;SDS011;55754;52.038;5.566;2022-08-19T01:31:19;11.52;;;6.80;;
68763;SDS011;55754;52.038;5.566;2022-08-19T01:33:47;10.25;;;6.45;;
68763;SDS011;55754;52.038;5.566;2022-08-19T01:36:15;9.73;;;6.37;;
68763;SDS011;55754;52.038;5.566;2022-08-19T01:38:50;12.82;;;6.30;;
68763;SDS011;55754;52.038;5.566;2022-08-19T01:41:17;9.20;;;6.22;;
68763;SDS011;55754;52.038;5.566;2022-08-19T01:43:43;9.47;;;6.50;;
68763;SDS011;55754;52.038;5.566;2022-08-19T01:46:09;10.50;;;6.38;;
68763;SDS011;55754;52.038;5.566;2022-08-19T01:48:37;10.90;;;6.90;;
68763;SDS011;55754;52.038;5.566;2022-08-19T01:51:06;8.60;;;6.17;;
68763;SDS011;55754;52.038;5.566;2022-08-19T01:53:32;8.93;;;6.13;;
68763;SDS011;55754;52.038;5.566;2022-08-19T01:55:59;12.13;;;6.43;;
68763;SDS011;55754;52.038;5.566;2022-08-19T01:58:36;12.25;;;6.97;;
68763;SDS011;55754;52.038;5.566;2022-08-19T02:01:06;8.90;;;6.20;;
68763;SDS011;55754;52.038;5.566;2022-08-19T02:03:32;10.05;;;6.50;;
68763;SDS011;55754;52.038;5.566;2022-08-19T02:06:00;9.73;;;6.40;;
68763;SDS011;55754;52.038;5.566;2022-08-19T02:08:27;8.53;;;5.97;;
68763;SDS011;55754;52.038;5.566;2022-08-19T02:10:55;10.05;;;6.57;;
68763;SDS011;55754;52.038;5.566;2022-08-19T02:13:21;12.02;;;6.60;;
68763;SDS011;55754;52.038;5.566;2022-08-19T02:15:47;12.60;;;6.63;;
68763;SDS011;55754;52.038;5.566;2022-08-19T02:18:13;10.05;;;5.95;;
68763;SDS011;55754;52.038;5.566;2022-08-19T02:20:39;10.63;;;7.03;;
68763;SDS011;55754;52.038;5.566;2022-08-19T02:23:06;10.18;;;6.53;;
68763;SDS011;55754;52.038;5.566;2022-08-19T02:25:33;11.27;;;6.97;;
68763;SDS011;55754;52.038;5.566;2022-08-19T02:27:58;11.03;;;6.77;;
68763;SDS011;55754;52.038;5.566;2022-08-19T02:30:24;9.90;;;6.80;;
68763;SDS011;55754;52.038;5.566;2022-08-19T02:32:50;10.10;;;6.87;;
68763;SDS011;55754;52.038;5.566;2022-08-19T02:35:17;11.32;;;6.72;;
68763;SDS011;55754;52.038;5.566;2022-08-19T02:37:43;10.05;;;6.72;;
68763;SDS011;55754;52.038;5.566;2022-08-19T02:40:28;10.10;;;6.97;;
68763;SDS011;55754;52.038;5.566;2022-08-19T02:42:55;11.45;;;7.03;;
68763;SDS011;55754;52.038;5.566;2022-08-19T02:45:21;11.80;;;6.85;;
68763;SDS011;55754;52.038;5.566;2022-08-19T02:47:47;12.15;;;7.47;;
68763;SDS011;55754;52.038;5.566;2022-08-19T02:50:13;11.13;;;6.83;;
68763;SDS011;55754;52.038;5.566;2022-08-19T02:52:39;10.00;;;7.00;;
68763;SDS011;55754;52.038;5.566;2022-08-19T02:55:05;9.27;;;6.30;;
68763;SDS011;55754;52.038;5.566;2022-08-19T02:57:31;10.07;;;6.78;;
68763;SDS011;55754;52.038;5.566;2022-08-19T02:59:57;12.47;;;6.40;;
68763;SDS011;55754;52.038;5.566;2022-08-19T03:02:23;10.55;;;6.88;;
68763;SDS011;55754;52.038;5.566;2022-08-19T03:04:49;10.20;;;6.85;;
68763;SDS011;55754;52.038;5.566;2022-08-19T03:07:15;12.73;;;6.65;;
68763;SDS011;55754;52.038;5.566;2022-08-19T03:09:43;9.77;;;6.50;;
68763;SDS011;55754;52.038;5.566;2022-08-19T03:12:09;11.45;;;6.43;;
68763;SDS011;55754;52.038;5.566;2022-08-19T03:14:35;9.93;;;6.80;;
68763;SDS011;55754;52.038;5.566;2022-08-19T03:17:01;12.10;;;6.67;;
68763;SDS011;55754;52.038;5.566;2022-08-19T03:19:29;10.43;;;6.53;;
68763;SDS011;55754;52.038;5.566;2022-08-19T03:21:56;11.75;;;7.00;;
68763;SDS011;55754;52.038;5.566;2022-08-19T03:24:22;11.10;;;6.60;;
68763;SDS011;55754;52.038;5.566;2022-08-19T03:26:50;9.98;;;6.80;;
68763;SDS011;55754;52.038;5.566;2022-08-19T03:29:20;10.27;;;6.55;;
68763;SDS011;55754;52.038;5.566;2022-08-19T03:31:46;11.77;;;6.70;;
68763;SDS011;55754;52.038;5.566;2022-08-19T03:34:13;11.77;;;6.88;;
68763;SDS011;55754;52.038;5.566;2022-08-19T03:36:53;11.47;;;6.63;;
68763;SDS011;55754;52.038;5.566;2022-08-19T03:39:21;10.15;;;6.20;;
68763;SDS011;55754;52.038;5.566;2022-08-19T03:41:49;10.45;;;6.85;;
68763;SDS011;55754;52.038;5.566;2022-08-19T03:44:20;11.13;;;6.60;;
68763;SDS011;55754;52.038;5.566;2022-08-19T03:46:51;11.80;;;6.57;;
68763;SDS011;55754;52.038;5.566;2022-08-19T03:49:20;10.40;;;6.88;;
68763;SDS011;55754;52.038;5.566;2022-08-19T03:51:47;9.52;;;6.70;;
68763;SDS011;55754;52.038;5.566;2022-08-19T03:54:16;9.77;;;6.33;;
68763;SDS011;55754;52.038;5.566;2022-08-19T03:56:45;10.30;;;6.28;;
68763;SDS011;55754;52.038;5.566;2022-08-19T03:59:15;9.48;;;6.07;;
68763;SDS011;55754;52.038;5.566;2022-08-19T04:01:53;10.87;;;6.50;;
68763;SDS011;55754;52.038;5.566;2022-08-19T04:04:20;9.77;;;6.40;;
68763;SDS011;55754;52.038;5.566;2022-08-19T04:06:46;9.95;;;6.90;;
68763;SDS011;55754;52.038;5.566;2022-08-19T04:09:12;11.13;;;6.90;;
68763;SDS011;55754;52.038;5.566;2022-08-19T04:11:48;10.23;;;6.40;;
68763;SDS011;55754;52.038;5.566;2022-08-19T04:14:19;10.80;;;7.32;;
68763;SDS011;55754;52.038;5.566;2022-08-19T04:16:47;19.58;;;7.15;;
68763;SDS011;55754;52.038;5.566;2022-08-19T04:19:14;10.67;;;6.47;;
68763;SDS011;55754;52.038;5.566;2022-08-19T04:21:40;12.77;;;6.70;;
68763;SDS011;55754;52.038;5.566;2022-08-19T04:24:10;11.73;;;7.28;;
68763;SDS011;55754;52.038;5.566;2022-08-19T04:26:37;13.03;;;7.70;;
68763;SDS011;55754;52.038;5.566;2022-08-19T04:29:05;12.18;;;7.90;;
68763;SDS011;55754;52.038;5.566;2022-08-19T04:31:36;14.60;;;7.90;;
68763;SDS011;55754;52.038;5.566;2022-08-19T04:34:04;11.53;;;7.83;;
68763;SDS011;55754;52.038;5.566;2022-08-19T04:36:33;11.02;;;7.53;;
68763;SDS011;55754;52.038;5.566;2022-08-19T04:39:03;12.00;;;7.72;;
68763;SDS011;55754;52.038;5.566;2022-08-19T04:41:31;11.97;;;7.37;;
68763;SDS011;55754;52.038;5.566;2022-08-19T04:44:15;13.50;;;7.50;;
68763;SDS011;55754;52.038;5.566;2022-08-19T04:46:43;12.35;;;7.80;;
68763;SDS011;55754;52.038;5.566;2022-08-19T04:49:10;11.57;;;7.30;;
68763;SDS011;55754;52.038;5.566;2022-08-19T04:51:36;11.02;;;7.38;;
68763;SDS011;55754;52.038;5.566;2022-08-19T04:54:04;11.88;;;7.18;;
68763;SDS011;55754;52.038;5.566;2022-08-19T04:56:30;10.97;;;7.27;;
68763;SDS011;55754;52.038;5.566;2022-08-19T04:58:56;11.38;;;6.97;;
68763;SDS011;55754;52.038;5.566;2022-08-19T05:01:28;14.77;;;7.73;;
68763;SDS011;55754;52.038;5.566;2022-08-19T05:03:54;13.30;;;7.57;;
68763;SDS011;55754;52.038;5.566;2022-08-19T05:06:21;15.38;;;9.93;;
68763;SDS011;55754;52.038;5.566;2022-08-19T05:08:47;13.32;;;8.63;;
68763;SDS011;55754;52.038;5.566;2022-08-19T05:11:15;12.07;;;7.67;;
68763;SDS011;55754;52.038;5.566;2022-08-19T05:13:44;10.52;;;7.18;;
68763;SDS011;55754;52.038;5.566;2022-08-19T05:16:10;15.27;;;8.07;;
68763;SDS011;55754;52.038;5.566;2022-08-19T05:18:37;11.90;;;7.87;;
68763;SDS011;55754;52.038;5.566;2022-08-19T05:21:23;12.73;;;8.00;;
68763;SDS011;55754;52.038;5.566;2022-08-19T05:24:08;12.63;;;8.15;;
68763;SDS011;55754;52.038;5.566;2022-08-19T05:26:37;11.77;;;7.87;;
68763;SDS011;55754;52.038;5.566;2022-08-19T05:29:04;12.38;;;7.95;;
68763;SDS011;55754;52.038;5.566;2022-08-19T05:31:32;13.18;;;8.30;;
68763;SDS011;55754;52.038;5.566;2022-08-19T05:33:57;14.50;;;8.20;;
68763;SDS011;55754;52.038;5.566;2022-08-19T05:36:26;12.18;;;8.32;;
68763;SDS011;55754;52.038;5.566;2022-08-19T05:38:53;14.30;;;9.20;;
68763;SDS011;55754;52.038;5.566;2022-08-19T05:41:19;15.90;;;10.13;;
68763;SDS011;55754;52.038;5.566;2022-08-19T05:44:00;15.70;;;10.10;;
68763;SDS011;55754;52.038;5.566;2022-08-19T05:46:27;16.53;;;11.00;;
68763;SDS011;55754;52.038;5.566;2022-08-19T05:48:54;15.35;;;10.40;;
68763;SDS011;55754;52.038;5.566;2022-08-19T05:51:21;16.85;;;10.60;;
68763;SDS011;55754;52.038;5.566;2022-08-19T05:53:48;15.18;;;10.13;;
68763;SDS011;55754;52.038;5.566;2022-08-19T05:56:14;19.10;;;12.13;;
68763;SDS011;55754;52.038;5.566;2022-08-19T05:58:41;23.67;;;14.23;;
68763;SDS011;55754;52.038;5.566;2022-08-19T06:01:10;23.90;;;14.00;;
68763;SDS011;55754;52.038;5.566;2022-08-19T06:03:38;24.48;;;14.25;;
68763;SDS011;55754;52.038;5.566;2022-08-19T06:06:04;17.75;;;10.88;;
68763;SDS011;55754;52.038;5.566;2022-08-19T06:08:31;17.38;;;9.52;;
68763;SDS011;55754;52.038;5.566;2022-08-19T06:10:57;14.20;;;9.33;;
68763;SDS011;55754;52.038;5.566;2022-08-19T06:13:36;22.73;;;14.20;;
68763;SDS011;55754;52.038;5.566;2022-08-19T06:16:01;29.60;;;17.60;;
68763;SDS011;55754;52.038;5.566;2022-08-19T06:18:27;33.80;;;19.58;;
68763;SDS011;55754;52.038;5.566;2022-08-19T06:20:53;37.57;;;20.60;;
68763;SDS011;55754;52.038;5.566;2022-08-19T06:23:18;38.10;;;21.00;;
68763;SDS011;55754;52.038;5.566;2022-08-19T06:25:45;40.93;;;21.63;;
68763;SDS011;55754;52.038;5.566;2022-08-19T06:28:10;44.25;;;22.98;;
68763;SDS011;55754;52.038;5.566;2022-08-19T06:30:36;44.35;;;23.58;;
68763;SDS011;55754;52.038;5.566;2022-08-19T06:33:02;47.33;;;24.37;;
68763;SDS011;55754;52.038;5.566;2022-08-19T06:35:27;42.77;;;23.50;;
68763;SDS011;55754;52.038;5.566;2022-08-19T06:37:54;44.97;;;23.13;;
68763;SDS011;55754;52.038;5.566;2022-08-19T06:40:20;45.70;;;23.38;;
68763;SDS011;55754;52.038;5.566;2022-08-19T06:42:46;42.00;;;23.40;;
68763;SDS011;55754;52.038;5.566;2022-08-19T06:45:11;45.70;;;23.58;;
68763;SDS011;55754;52.038;5.566;2022-08-19T06:47:37;43.63;;;24.40;;
68763;SDS011;55754;52.038;5.566;2022-08-19T06:50:03;49.20;;;25.40;;
68763;SDS011;55754;52.038;5.566;2022-08-19T06:52:33;53.27;;;26.10;;
68763;SDS011;55754;52.038;5.566;2022-08-19T06:54:59;47.95;;;26.05;;
68763;SDS011;55754;52.038;5.566;2022-08-19T06:57:26;50.17;;;26.83;;
68763;SDS011;55754;52.038;5.566;2022-08-19T06:59:56;52.63;;;26.58;;
68763;SDS011;55754;52.038;5.566;2022-08-19T07:02:21;51.03;;;26.00;;
68763;SDS011;55754;52.038;5.566;2022-08-19T07:04:51;48.83;;;26.20;;
68763;SDS011;55754;52.038;5.566;2022-08-19T07:07:17;54.50;;;26.63;;
68763;SDS011;55754;52.038;5.566;2022-08-19T07:09:44;49.38;;;26.48;;
68763;SDS011;55754;52.038;5.566;2022-08-19T07:12:11;50.53;;;26.00;;
68763;SDS011;55754;52.038;5.566;2022-08-19T07:14:40;54.93;;;27.40;;
68763;SDS011;55754;52.038;5.566;2022-08-19T07:17:07;56.03;;;27.80;;
68763;SDS011;55754;52.038;5.566;2022-08-19T07:19:35;50.63;;;27.45;;
68763;SDS011;55754;52.038;5.566;2022-08-19T07:22:03;47.47;;;26.05;;
68763;SDS011;55754;52.038;5.566;2022-08-19T07:24:31;51.30;;;25.97;;
68763;SDS011;55754;52.038;5.566;2022-08-19T07:26:58;53.13;;;26.55;;
68763;SDS011;55754;52.038;5.566;2022-08-19T07:29:28;51.00;;;26.13;;
68763;SDS011;55754;52.038;5.566;2022-08-19T07:31:56;52.47;;;26.27;;
68763;SDS011;55754;52.038;5.566;2022-08-19T07:34:23;50.13;;;26.88;;
68763;SDS011;55754;52.038;5.566;2022-08-19T07:36:50;50.42;;;26.15;;
68763;SDS011;55754;52.038;5.566;2022-08-19T07:39:19;52.73;;;26.57;;
68763;SDS011;55754;52.038;5.566;2022-08-19T07:41:52;47.17;;;24.83;;
68763;SDS011;55754;52.038;5.566;2022-08-19T07:44:19;47.08;;;24.45;;
68763;SDS011;55754;52.038;5.566;2022-08-19T07:46:47;46.10;;;24.45;;
68763;SDS011;55754;52.038;5.566;2022-08-19T07:49:15;50.33;;;25.20;;
68763;SDS011;55754;52.038;5.566;2022-08-19T07:51:54;48.05;;;25.20;;
68763;SDS011;55754;52.038;5.566;2022-08-19T07:54:23;48.60;;;24.80;;
68763;SDS011;55754;52.038;5.566;2022-08-19T07:56:50;53.83;;;25.40;;
68763;SDS011;55754;52.038;5.566;2022-08-19T07:59:17;48.38;;;25.63;;
68763;SDS011;55754;52.038;5.566;2022-08-19T08:01:45;51.20;;;25.40;;
68763;SDS011;55754;52.038;5.566;2022-08-19T08:04:11;49.50;;;24.60;;
68763;SDS011;55754;52.038;5.566;2022-08-19T08:06:55;47.15;;;23.92;;
68763;SDS011;55754;52.038;5.566;2022-08-19T08:09:40;47.33;;;23.75;;
68763;SDS011;55754;52.038;5.566;2022-08-19T08:12:09;43.28;;;21.98;;
68763;SDS011;55754;52.038;5.566;2022-08-19T08:14:50;42.40;;;22.90;;
68763;SDS011;55754;52.038;5.566;2022-08-19T08:17:20;44.65;;;23.00;;
68763;SDS011;55754;52.038;5.566;2022-08-19T08:19:48;39.72;;;22.25;;
68763;SDS011;55754;52.038;5.566;2022-08-19T08:22:16;41.80;;;22.43;;
68763;SDS011;55754;52.038;5.566;2022-08-19T08:25:13;40.05;;;21.48;;
68763;SDS011;55754;52.038;5.566;2022-08-19T08:27:42;41.47;;;21.08;;
68763;SDS011;55754;52.038;5.566;2022-08-19T08:30:10;41.63;;;21.63;;
68763;SDS011;55754;52.038;5.566;2022-08-19T08:32:41;39.92;;;20.63;;
68763;SDS011;55754;52.038;5.566;2022-08-19T08:35:08;40.97;;;20.35;;
68763;SDS011;55754;52.038;5.566;2022-08-19T08:37:35;39.03;;;20.58;;
68763;SDS011;55754;52.038;5.566;2022-08-19T08:40:06;36.60;;;20.40;;
68763;SDS011;55754;52.038;5.566;2022-08-19T08:42:45;37.50;;;20.10;;
68763;SDS011;55754;52.038;5.566;2022-08-19T08:45:25;36.53;;;19.70;;
68763;SDS011;55754;52.038;5.566;2022-08-19T08:47:52;34.40;;;19.60;;
68763;SDS011;55754;52.038;5.566;2022-08-19T08:50:31;38.45;;;20.80;;
68763;SDS011;55754;52.038;5.566;2022-08-19T08:53:03;34.75;;;19.85;;
68763;SDS011;55754;52.038;5.566;2022-08-19T08:55:31;33.63;;;19.03;;
68763;SDS011;55754;52.038;5.566;2022-08-19T08:58:02;33.30;;;19.40;;
68763;SDS011;55754;52.038;5.566;2022-08-19T09:00:35;37.80;;;19.15;;
68763;SDS011;55754;52.038;5.566;2022-08-19T09:03:06;36.95;;;18.75;;
68763;SDS011;55754;52.038;5.566;2022-08-19T09:11:06;38.00;;;20.45;;
68763;SDS011;55754;52.038;5.566;2022-08-19T09:13:51;34.30;;;18.97;;
68763;SDS011;55754;52.038;5.566;2022-08-19T09:16:34;33.05;;;18.70;;
68763;SDS011;55754;52.038;5.566;2022-08-19T09:19:02;31.17;;;17.95;;
68763;SDS011;55754;52.038;5.566;2022-08-19T09:21:29;28.37;;;16.00;;
68763;SDS011;55754;52.038;5.566;2022-08-19T09:23:55;28.30;;;16.30;;
68763;SDS011;55754;52.038;5.566;2022-08-19T09:26:21;27.37;;;16.87;;
68763;SDS011;55754;52.038;5.566;2022-08-19T09:28:48;27.08;;;16.52;;
68763;SDS011;55754;52.038;5.566;2022-08-19T09:31:20;29.30;;;17.02;;
68763;SDS011;55754;52.038;5.566;2022-08-19T09:33:48;28.13;;;16.90;;
68763;SDS011;55754;52.038;5.566;2022-08-19T09:36:16;29.53;;;16.47;;
68763;SDS011;55754;52.038;5.566;2022-08-19T09:38:43;28.02;;;16.70;;
68763;SDS011;55754;52.038;5.566;2022-08-19T09:41:14;29.25;;;16.30;;
68763;SDS011;55754;52.038;5.566;2022-08-19T09:43:42;30.13;;;15.77;;
68763;SDS011;55754;52.038;5.566;2022-08-19T09:46:10;29.10;;;16.50;;
68763;SDS011;55754;52.038;5.566;2022-08-19T09:48:37;25.98;;;15.48;;
68763;SDS011;55754;52.038;5.566;2022-08-19T09:51:06;25.77;;;15.10;;
68763;SDS011;55754;52.038;5.566;2022-08-19T09:53:44;27.23;;;14.98;;
68763;SDS011;55754;52.038;5.566;2022-08-19T09:56:12;26.33;;;15.05;;
68763;SDS011;55754;52.038;5.566;2022-08-19T09:58:38;24.10;;;13.95;;
68763;SDS011;55754;52.038;5.566;2022-08-19T10:01:05;25.23;;;15.40;;
68763;SDS011;55754;52.038;5.566;2022-08-19T10:03:32;25.10;;;14.20;;
68763;SDS011;55754;52.038;5.566;2022-08-19T10:06:00;21.85;;;13.38;;
68763;SDS011;55754;52.038;5.566;2022-08-19T10:08:29;26.50;;;14.40;;
68763;SDS011;55754;52.038;5.566;2022-08-19T10:10:58;23.48;;;13.82;;
68763;SDS011;55754;52.038;5.566;2022-08-19T10:13:26;24.15;;;14.00;;
68763;SDS011;55754;52.038;5.566;2022-08-19T10:15:54;22.73;;;13.20;;
68763;SDS011;55754;52.038;5.566;2022-08-19T10:18:22;24.27;;;12.13;;
68763;SDS011;55754;52.038;5.566;2022-08-19T10:20:50;22.05;;;13.10;;
68763;SDS011;55754;52.038;5.566;2022-08-19T10:23:20;23.08;;;13.15;;
68763;SDS011;55754;52.038;5.566;2022-08-19T10:25:46;20.47;;;12.23;;
68763;SDS011;55754;52.038;5.566;2022-08-19T10:28:12;19.65;;;11.80;;
68763;SDS011;55754;52.038;5.566;2022-08-19T10:30:39;25.57;;;13.37;;
68763;SDS011;55754;52.038;5.566;2022-08-19T10:33:05;23.80;;;13.23;;
68763;SDS011;55754;52.038;5.566;2022-08-19T10:35:31;21.02;;;12.88;;
68763;SDS011;55754;52.038;5.566;2022-08-19T10:37:56;20.77;;;13.10;;
68763;SDS011;55754;52.038;5.566;2022-08-19T10:40:24;25.77;;;13.63;;
68763;SDS011;55754;52.038;5.566;2022-08-19T10:42:52;22.08;;;12.73;;
68763;SDS011;55754;52.038;5.566;2022-08-19T10:45:18;23.63;;;13.20;;
68763;SDS011;55754;52.038;5.566;2022-08-19T10:47:47;23.30;;;12.93;;
68763;SDS011;55754;52.038;5.566;2022-08-19T10:50:12;23.63;;;14.23;;
68763;SDS011;55754;52.038;5.566;2022-08-19T10:52:56;27.08;;;13.63;;
68763;SDS011;55754;52.038;5.566;2022-08-19T10:55:23;22.50;;;13.57;;
68763;SDS011;55754;52.038;5.566;2022-08-19T10:58:17;23.52;;;13.88;;
68763;SDS011;55754;52.038;5.566;2022-08-19T11:00:51;23.20;;;13.00;;
68763;SDS011;55754;52.038;5.566;2022-08-19T11:03:18;24.48;;;13.75;;
68763;SDS011;55754;52.038;5.566;2022-08-19T11:05:44;21.20;;;13.20;;
68763;SDS011;55754;52.038;5.566;2022-08-19T11:08:09;22.40;;;13.80;;
68763;SDS011;55754;52.038;5.566;2022-08-19T11:10:41;24.17;;;13.80;;
68763;SDS011;55754;52.038;5.566;2022-08-19T11:13:07;23.30;;;14.80;;
68763;SDS011;55754;52.038;5.566;2022-08-19T11:15:33;25.33;;;15.43;;
68763;SDS011;55754;52.038;5.566;2022-08-19T11:17:59;23.80;;;15.10;;
68763;SDS011;55754;52.038;5.566;2022-08-19T11:20:25;23.23;;;15.65;;
68763;SDS011;55754;52.038;5.566;2022-08-19T11:22:51;25.60;;;15.02;;
68763;SDS011;55754;52.038;5.566;2022-08-19T11:25:18;23.40;;;14.33;;
68763;SDS011;55754;52.038;5.566;2022-08-19T11:27:44;24.95;;;15.73;;
68763;SDS011;55754;52.038;5.566;2022-08-19T11:30:12;23.88;;;15.57;;
68763;SDS011;55754;52.038;5.566;2022-08-19T11:32:38;23.73;;;15.40;;
68763;SDS011;55754;52.038;5.566;2022-08-19T11:35:05;25.65;;;16.33;;
68763;SDS011;55754;52.038;5.566;2022-08-19T11:37:31;26.30;;;16.02;;
68763;SDS011;55754;52.038;5.566;2022-08-19T11:40:03;24.48;;;15.05;;
68763;SDS011;55754;52.038;5.566;2022-08-19T11:42:30;25.40;;;15.50;;
68763;SDS011;55754;52.038;5.566;2022-08-19T11:45:14;26.20;;;16.38;;
68763;SDS011;55754;52.038;5.566;2022-08-19T11:47:40;25.63;;;15.50;;
68763;SDS011;55754;52.038;5.566;2022-08-19T11:50:06;24.80;;;15.88;;
68763;SDS011;55754;52.038;5.566;2022-08-19T11:52:31;26.45;;;16.35;;
68763;SDS011;55754;52.038;5.566;2022-08-19T11:54:57;26.17;;;16.37;;
68763;SDS011;55754;52.038;5.566;2022-08-19T11:57:23;25.93;;;16.93;;
68763;SDS011;55754;52.038;5.566;2022-08-19T11:59:49;26.10;;;17.27;;
68763;SDS011;55754;52.038;5.566;2022-08-19T12:02:16;30.38;;;17.00;;
68763;SDS011;55754;52.038;5.566;2022-08-19T12:04:42;30.10;;;16.13;;
68763;SDS011;55754;52.038;5.566;2022-08-19T12:07:08;26.83;;;16.17;;
68763;SDS011;55754;52.038;5.566;2022-08-19T12:09:34;26.50;;;17.67;;
68763;SDS011;55754;52.038;5.566;2022-08-19T12:12:00;30.65;;;18.00;;
68763;SDS011;55754;52.038;5.566;2022-08-19T12:14:27;29.92;;;16.83;;
68763;SDS011;55754;52.038;5.566;2022-08-19T12:16:55;27.20;;;17.17;;
68763;SDS011;55754;52.038;5.566;2022-08-19T12:19:21;25.17;;;16.40;;
68763;SDS011;55754;52.038;5.566;2022-08-19T12:21:47;28.95;;;15.95;;
68763;SDS011;55754;52.038;5.566;2022-08-19T12:24:13;28.47;;;16.37;;
68763;SDS011;55754;52.038;5.566;2022-08-19T12:26:39;26.10;;;15.95;;
68763;SDS011;55754;52.038;5.566;2022-08-19T12:29:04;21.97;;;14.53;;
68763;SDS011;55754;52.038;5.566;2022-08-19T12:31:30;30.25;;;17.15;;
68763;SDS011;55754;52.038;5.566;2022-08-19T12:33:56;27.30;;;16.33;;
68763;SDS011;55754;52.038;5.566;2022-08-19T12:36:22;29.30;;;16.80;;
68763;SDS011;55754;52.038;5.566;2022-08-19T12:38:49;25.55;;;16.35;;
68763;SDS011;55754;52.038;5.566;2022-08-19T12:41:16;28.65;;;16.63;;
68763;SDS011;55754;52.038;5.566;2022-08-19T12:43:43;30.33;;;16.90;;
68763;SDS011;55754;52.038;5.566;2022-08-19T12:46:09;26.30;;;15.98;;
68763;SDS011;55754;52.038;5.566;2022-08-19T12:48:36;25.30;;;17.48;;
68763;SDS011;55754;52.038;5.566;2022-08-19T12:51:08;28.23;;;17.23;;
68763;SDS011;55754;52.038;5.566;2022-08-19T12:53:35;23.48;;;15.60;;
68763;SDS011;55754;52.038;5.566;2022-08-19T12:56:01;23.80;;;14.13;;
68763;SDS011;55754;52.038;5.566;2022-08-19T12:58:27;26.00;;;14.67;;
68763;SDS011;55754;52.038;5.566;2022-08-19T13:00:54;26.20;;;14.15;;
68763;SDS011;55754;52.038;5.566;2022-08-19T13:03:20;23.33;;;15.05;;
68763;SDS011;55754;52.038;5.566;2022-08-19T13:05:47;22.63;;;13.70;;
68763;SDS011;55754;52.038;5.566;2022-08-19T13:08:17;22.00;;;13.60;;
68763;SDS011;55754;52.038;5.566;2022-08-19T13:10:43;18.88;;;12.85;;
68763;SDS011;55754;52.038;5.566;2022-08-19T13:13:08;23.63;;;14.20;;
68763;SDS011;55754;52.038;5.566;2022-08-19T13:15:35;21.55;;;14.05;;
68763;SDS011;55754;52.038;5.566;2022-08-19T13:18:05;21.50;;;14.27;;
68763;SDS011;55754;52.038;5.566;2022-08-19T13:20:32;22.20;;;13.93;;
68763;SDS011;55754;52.038;5.566;2022-08-19T13:22:57;23.77;;;14.95;;
68763;SDS011;55754;52.038;5.566;2022-08-19T13:25:23;23.50;;;15.47;;
68763;SDS011;55754;52.038;5.566;2022-08-19T13:27:50;25.10;;;14.82;;
68763;SDS011;55754;52.038;5.566;2022-08-19T13:30:17;22.52;;;13.45;;
68763;SDS011;55754;52.038;5.566;2022-08-19T13:33:03;24.27;;;13.30;;
68763;SDS011;55754;52.038;5.566;2022-08-19T13:35:35;21.17;;;12.35;;
68763;SDS011;55754;52.038;5.566;2022-08-19T13:38:02;22.38;;;13.90;;
68763;SDS011;55754;52.038;5.566;2022-08-19T13:40:30;21.88;;;13.57;;
68763;SDS011;55754;52.038;5.566;2022-08-19T13:42:59;17.80;;;11.47;;
68763;SDS011;55754;52.038;5.566;2022-08-19T13:45:26;18.42;;;11.05;;
68763;SDS011;55754;52.038;5.566;2022-08-19T13:47:54;20.70;;;10.90;;
68763;SDS011;55754;52.038;5.566;2022-08-19T13:50:22;19.67;;;10.83;;
68763;SDS011;55754;52.038;5.566;2022-08-19T13:52:50;18.95;;;11.68;;
68763;SDS011;55754;52.038;5.566;2022-08-19T13:55:16;19.85;;;11.85;;
68763;SDS011;55754;52.038;5.566;2022-08-19T13:57:42;21.27;;;11.70;;
68763;SDS011;55754;52.038;5.566;2022-08-19T14:00:09;19.35;;;11.57;;
68763;SDS011;55754;52.038;5.566;2022-08-19T14:02:38;20.10;;;10.93;;
68763;SDS011;55754;52.038;5.566;2022-08-19T14:05:05;19.30;;;11.27;;
68763;SDS011;55754;52.038;5.566;2022-08-19T14:07:33;21.30;;;10.90;;
68763;SDS011;55754;52.038;5.566;2022-08-19T14:09:59;18.17;;;10.50;;
68763;SDS011;55754;52.038;5.566;2022-08-19T14:12:25;17.90;;;10.33;;
68763;SDS011;55754;52.038;5.566;2022-08-19T14:14:50;15.73;;;9.48;;
68763;SDS011;55754;52.038;5.566;2022-08-19T14:17:16;16.83;;;8.80;;
68763;SDS011;55754;52.038;5.566;2022-08-19T14:19:42;14.90;;;8.20;;
68763;SDS011;55754;52.038;5.566;2022-08-19T14:22:08;13.80;;;8.23;;
68763;SDS011;55754;52.038;5.566;2022-08-19T14:24:34;13.90;;;7.50;;
68763;SDS011;55754;52.038;5.566;2022-08-19T14:27:01;18.00;;;9.57;;
68763;SDS011;55754;52.038;5.566;2022-08-19T14:29:28;21.67;;;8.87;;
68763;SDS011;55754;52.038;5.566;2022-08-19T14:31:54;16.45;;;8.20;;
68763;SDS011;55754;52.038;5.566;2022-08-19T14:34:23;12.38;;;7.63;;
68763;SDS011;55754;52.038;5.566;2022-08-19T14:36:50;15.33;;;8.17;;
68763;SDS011;55754;52.038;5.566;2022-08-19T14:39:15;13.45;;;7.95;;